createdAt,value
2023-04-22T00:00:59.090Z,10.79
2023-04-22T00:01:59.093Z,10.81
2023-04-22T00:02:59.337Z,10.81
2023-04-22T00:03:59.389Z,10.76
2023-04-22T00:04:59.273Z,10.72
2023-04-22T00:05:59.062Z,10.75
2023-04-22T00:06:59.017Z,10.78
2023-04-22T00:07:59.012Z,10.68
2023-04-22T00:08:59.003Z,10.71
2023-04-22T00:09:58.977Z,10.78
2023-04-22T00:10:58.973Z,10.72
2023-04-22T00:11:58.956Z,10.76
2023-04-22T00:12:58.965Z,10.72
2023-04-22T00:13:58.944Z,10.69
2023-04-22T00:14:58.928Z,10.64
2023-04-22T00:15:58.976Z,10.63
2023-04-22T00:16:58.905Z,10.71
2023-04-22T00:17:58.970Z,10.61
2023-04-22T00:18:59.374Z,10.59
2023-04-22T00:19:58.865Z,10.64
2023-04-22T00:20:58.870Z,10.61
2023-04-22T00:21:58.847Z,10.64
2023-04-22T00:22:58.843Z,10.64
2023-04-22T00:23:58.839Z,10.63
2023-04-22T00:24:58.818Z,10.59
2023-04-22T00:25:58.795Z,10.53
2023-04-22T00:26:58.788Z,10.60
2023-04-22T00:27:58.774Z,10.54
2023-04-22T00:28:58.760Z,10.54
2023-04-22T00:29:58.758Z,10.40
2023-04-22T00:30:58.798Z,10.49
2023-04-22T00:31:58.794Z,10.42
2023-04-22T00:32:58.780Z,10.38
2023-04-22T00:33:58.725Z,10.41
2023-04-22T00:34:58.705Z,10.48
2023-04-22T00:35:58.696Z,10.42
2023-04-22T00:36:58.674Z,10.48
2023-04-22T00:37:58.662Z,10.35
2023-04-22T00:38:58.670Z,10.48
2023-04-22T00:39:58.637Z,10.51
2023-04-22T00:40:58.624Z,10.44
2023-04-22T00:41:58.621Z,10.53
2023-04-22T00:42:58.630Z,10.48
2023-04-22T00:43:58.586Z,10.37
2023-04-22T00:44:58.587Z,10.37
2023-04-22T00:45:58.568Z,10.34
2023-04-22T00:46:58.615Z,10.35
2023-04-22T00:47:58.589Z,10.35
2023-04-22T00:48:58.551Z,10.38
2023-04-22T00:49:58.549Z,10.22
2023-04-22T00:50:58.512Z,10.28
2023-04-22T00:51:58.512Z,10.12
2023-04-22T00:52:58.489Z,10.17
2023-04-22T00:53:58.491Z,10.10
2023-04-22T00:54:58.479Z,10.10
2023-04-22T00:55:58.452Z,10.05
2023-04-22T00:56:58.443Z,10.23
2023-04-22T00:57:58.429Z,10.13
2023-04-22T00:58:58.431Z,10.17
2023-04-22T00:59:58.414Z,10.02
2023-04-22T01:00:58.472Z,10.07
2023-04-22T01:01:58.406Z,10.13
2023-04-22T01:02:58.595Z,10.09
2023-04-22T01:03:58.512Z,10.02
2023-04-22T01:04:58.391Z,10.02
2023-04-22T01:05:58.371Z,10.01
2023-04-22T01:06:58.359Z,9.94
2023-04-22T01:07:58.315Z,9.94
2023-04-22T01:08:58.313Z,9.99
2023-04-22T01:09:58.308Z,10.04
2023-04-22T01:10:58.307Z,10.02
2023-04-22T01:11:58.270Z,10.05
2023-04-22T01:12:58.272Z,9.98
2023-04-22T01:13:58.281Z,9.98
2023-04-22T01:14:58.250Z,10.02
2023-04-22T01:15:58.225Z,9.99
2023-04-22T01:16:58.328Z,9.99
2023-04-22T01:17:58.288Z,9.95
2023-04-22T01:18:58.206Z,9.95
2023-04-22T01:19:58.183Z,9.95
2023-04-22T01:20:58.190Z,9.89
2023-04-22T01:21:58.181Z,9.84
2023-04-22T01:22:58.174Z,9.87
2023-04-22T01:23:58.163Z,9.86
2023-04-22T01:24:58.140Z,9.89
2023-04-22T01:25:58.133Z,9.79
2023-04-22T01:26:58.110Z,9.77
2023-04-22T01:27:58.105Z,9.68
2023-04-22T01:28:58.106Z,9.74
2023-04-22T01:29:58.077Z,9.82
2023-04-22T01:30:58.060Z,9.68
2023-04-22T01:31:58.076Z,9.66
2023-04-22T01:32:58.076Z,9.65
2023-04-22T01:33:58.031Z,9.56
2023-04-22T01:34:58.033Z,9.72
2023-04-22T01:35:58.004Z,9.65
2023-04-22T01:36:57.993Z,9.62
2023-04-22T01:37:58.095Z,9.59
2023-04-22T01:38:57.975Z,9.68
2023-04-22T01:39:57.956Z,9.55
2023-04-22T01:40:57.959Z,9.55
2023-04-22T01:41:57.947Z,9.54
2023-04-22T01:42:57.935Z,9.58
2023-04-22T01:43:57.931Z,9.51
2023-04-22T01:44:57.906Z,9.51
2023-04-22T01:45:57.919Z,9.48
2023-04-22T01:46:57.885Z,9.48
2023-04-22T01:47:57.958Z,9.44
2023-04-22T01:48:57.859Z,9.40
2023-04-22T01:49:57.855Z,9.47
2023-04-22T01:50:57.836Z,9.48
2023-04-22T01:51:57.834Z,9.48
2023-04-22T01:52:57.817Z,9.44
2023-04-22T01:53:57.821Z,9.41
2023-04-22T01:54:57.806Z,9.43
2023-04-22T01:55:57.786Z,9.47
2023-04-22T01:56:57.770Z,9.47
2023-04-22T01:57:57.787Z,9.44
2023-04-22T01:58:57.749Z,9.43
2023-04-22T01:59:57.746Z,9.44
2023-04-22T02:00:57.754Z,9.44
2023-04-22T02:01:57.757Z,9.43
2023-04-22T02:02:57.778Z,9.36
2023-04-22T02:03:57.689Z,9.39
2023-04-22T02:04:57.796Z,9.36
2023-04-22T02:05:57.678Z,9.37
2023-04-22T02:06:57.657Z,9.31
2023-04-22T02:07:57.645Z,9.34
2023-04-22T02:08:57.647Z,9.40
2023-04-22T02:09:57.647Z,9.31
2023-04-22T02:10:57.620Z,9.36
2023-04-22T02:11:57.595Z,9.26
2023-04-22T02:12:57.601Z,9.36
2023-04-22T02:13:57.570Z,9.39
2023-04-22T02:14:57.586Z,9.40
2023-04-22T02:15:57.595Z,9.34
2023-04-22T02:16:57.546Z,9.26
2023-04-22T02:17:57.529Z,9.36
2023-04-22T02:18:57.520Z,9.34
2023-04-22T02:19:57.529Z,9.31
2023-04-22T02:20:57.505Z,9.34
2023-04-22T02:21:57.492Z,9.29
2023-04-22T02:22:57.474Z,9.31
2023-04-22T02:23:57.462Z,9.31
2023-04-22T02:24:57.468Z,9.32
2023-04-22T02:25:57.464Z,9.31
2023-04-22T02:26:57.449Z,9.29
2023-04-22T02:29:28.262Z,9.39
2023-04-22T02:30:28.270Z,9.25
2023-04-22T02:31:28.296Z,9.41
2023-04-22T02:32:28.273Z,9.28
2023-04-22T02:33:28.234Z,9.41
2023-04-22T02:34:28.205Z,9.44
2023-04-22T02:35:28.205Z,9.37
2023-04-22T02:36:28.201Z,9.43
2023-04-22T02:37:28.168Z,9.48
2023-04-22T02:38:28.232Z,9.44
2023-04-22T02:39:28.145Z,9.48
2023-04-22T02:40:28.152Z,9.46
2023-04-22T02:41:28.142Z,9.47
2023-04-22T02:42:35.173Z,9.46
2023-04-22T02:43:28.112Z,9.43
2023-04-22T02:44:28.104Z,9.40
2023-04-22T02:45:28.103Z,9.43
2023-04-22T02:46:28.141Z,9.46
2023-04-22T02:47:28.081Z,9.41
2023-04-22T02:48:28.050Z,9.51
2023-04-22T02:49:28.039Z,9.51
2023-04-22T02:50:28.048Z,9.44
2023-04-22T02:51:28.033Z,9.41
2023-04-22T02:52:28.026Z,9.47
2023-04-22T02:53:27.997Z,9.55
2023-04-22T02:54:27.998Z,9.59
2023-04-22T02:55:27.982Z,9.56
2023-04-22T02:56:27.966Z,9.54
2023-04-22T02:57:27.994Z,9.61
2023-04-22T02:58:27.941Z,9.54
2023-04-22T02:59:27.949Z,9.54
2023-04-22T03:00:27.916Z,9.50
2023-04-22T03:01:28.012Z,9.51
2023-04-22T03:02:28.010Z,9.48
2023-04-22T03:03:28.082Z,9.59
2023-04-22T03:04:28.076Z,9.55
2023-04-22T03:05:27.872Z,9.56
2023-04-22T03:06:27.868Z,9.56
2023-04-22T03:07:27.836Z,9.44
2023-04-22T03:08:27.855Z,9.50
2023-04-22T03:09:27.827Z,9.48
2023-04-22T03:10:27.804Z,9.44
2023-04-22T03:11:27.792Z,9.41
2023-04-22T03:12:27.817Z,9.44
2023-04-22T03:13:27.829Z,9.47
2023-04-22T03:14:27.763Z,9.39
2023-04-22T03:15:27.749Z,9.48
2023-04-22T03:16:27.788Z,9.39
2023-04-22T03:17:27.728Z,9.47
2023-04-22T03:18:27.742Z,9.41
2023-04-22T03:19:27.719Z,9.43
2023-04-22T03:20:27.697Z,9.40
2023-04-22T03:21:27.683Z,9.46
2023-04-22T03:22:27.673Z,9.47
2023-04-22T03:23:27.681Z,9.46
2023-04-22T03:24:27.663Z,9.44
2023-04-22T03:25:27.638Z,9.51
2023-04-22T03:26:27.630Z,9.56
2023-04-22T03:27:27.620Z,9.54
2023-04-22T03:28:27.611Z,9.68
2023-04-22T03:29:28.188Z,9.64
2023-04-22T03:30:27.601Z,9.61
2023-04-22T03:31:27.612Z,9.68
2023-04-22T03:32:27.578Z,9.65
2023-04-22T03:33:27.552Z,9.66
2023-04-22T03:34:27.558Z,9.73
2023-04-22T03:35:27.527Z,9.80
2023-04-22T03:36:27.551Z,9.77
2023-04-22T03:37:27.512Z,9.80
2023-04-22T03:38:27.537Z,9.77
2023-04-22T03:39:27.488Z,9.80
2023-04-22T03:40:27.483Z,9.82
2023-04-22T03:41:27.473Z,9.84
2023-04-22T03:42:27.483Z,9.94
2023-04-22T03:43:27.443Z,9.91
2023-04-22T03:44:27.450Z,9.79
2023-04-22T03:45:27.437Z,9.92
2023-04-22T03:46:27.481Z,9.89
2023-04-22T03:47:27.447Z,9.95
2023-04-22T03:48:27.386Z,9.94
2023-04-22T03:49:27.394Z,9.94
2023-04-22T03:50:27.379Z,9.98
2023-04-22T03:51:27.419Z,10.01
2023-04-22T03:52:27.352Z,10.05
2023-04-22T03:53:27.335Z,9.94
2023-04-22T03:54:27.329Z,9.94
2023-04-22T03:55:27.306Z,9.95
2023-04-22T03:56:27.310Z,9.94
2023-04-22T03:57:27.304Z,10.02
2023-04-22T03:58:27.308Z,9.95
2023-04-22T03:59:27.269Z,10.09
2023-04-22T04:00:27.261Z,10.10
2023-04-22T04:01:27.281Z,10.09
2023-04-22T04:02:27.420Z,9.99
2023-04-22T04:03:28.789Z,10.02
2023-04-22T04:04:27.518Z,10.02
2023-04-22T04:05:27.276Z,9.95
2023-04-22T04:06:27.184Z,9.94
2023-04-22T04:07:27.182Z,10.05
2023-04-22T04:08:27.165Z,9.98
2023-04-22T04:09:27.150Z,10.02
2023-04-22T04:10:27.157Z,9.97
2023-04-22T04:11:27.157Z,9.97
2023-04-22T04:12:27.116Z,10.04
2023-04-22T04:13:27.107Z,9.98
2023-04-22T04:14:27.102Z,10.09
2023-04-22T04:15:27.082Z,10.09
2023-04-22T04:16:27.214Z,10.07
2023-04-22T04:17:27.107Z,10.07
2023-04-22T04:18:27.060Z,10.07
2023-04-22T04:19:27.060Z,10.05
2023-04-22T04:20:27.030Z,10.07
2023-04-22T04:21:27.044Z,10.09
2023-04-22T04:22:27.016Z,10.10
2023-04-22T04:23:27.008Z,10.09
2023-04-22T04:24:26.990Z,10.10
2023-04-22T04:25:26.972Z,10.09
2023-04-22T04:26:26.993Z,10.05
2023-04-22T04:27:26.954Z,10.05
2023-04-22T04:28:26.948Z,10.05
2023-04-22T04:29:26.938Z,10.15
2023-04-22T04:30:26.921Z,10.19
2023-04-22T04:31:26.928Z,10.17
2023-04-22T04:32:26.987Z,10.20
2023-04-22T04:33:26.919Z,10.17
2023-04-22T04:34:26.883Z,10.16
2023-04-22T04:35:26.881Z,10.13
2023-04-22T04:36:26.851Z,10.19
2023-04-22T04:37:26.835Z,10.19
2023-04-22T04:38:26.844Z,10.15
2023-04-22T04:39:26.813Z,10.13
2023-04-22T04:40:26.806Z,10.17
2023-04-22T04:41:26.808Z,10.13
2023-04-22T04:42:26.788Z,10.17
2023-04-22T04:43:26.784Z,10.25
2023-04-22T04:44:26.771Z,10.30
2023-04-22T04:45:26.762Z,10.28
2023-04-22T04:46:26.776Z,10.25
2023-04-22T04:47:26.775Z,10.23
2023-04-22T04:48:26.768Z,10.19
2023-04-22T04:49:26.741Z,10.19
2023-04-22T04:50:26.701Z,10.19
2023-04-22T04:51:26.732Z,10.23
2023-04-22T04:52:26.673Z,10.23
2023-04-22T04:53:26.699Z,10.33
2023-04-22T04:54:26.674Z,10.35
2023-04-22T04:55:26.643Z,10.35
2023-04-22T04:56:26.646Z,10.33
2023-04-22T04:57:26.632Z,10.34
2023-04-22T04:58:26.637Z,10.41
2023-04-22T04:59:26.615Z,10.41
2023-04-22T05:00:26.595Z,10.41
2023-04-22T05:01:26.624Z,10.38
2023-04-22T05:02:26.708Z,10.41
2023-04-22T05:03:26.740Z,10.41
2023-04-22T05:04:26.883Z,10.49
2023-04-22T05:05:26.551Z,10.53
2023-04-22T05:06:26.520Z,10.48
2023-04-22T05:07:26.526Z,10.57
2023-04-22T05:08:26.497Z,10.51
2023-04-22T05:09:26.492Z,10.49
2023-04-22T05:10:26.483Z,10.54
2023-04-22T05:11:26.480Z,10.60
2023-04-22T05:12:26.455Z,10.67
2023-04-22T05:13:26.458Z,10.63
2023-04-22T05:14:26.456Z,10.60
2023-04-22T05:15:26.414Z,10.72
2023-04-22T05:16:26.461Z,10.68
2023-04-22T05:17:26.410Z,10.69
2023-04-22T05:18:26.388Z,10.68
2023-04-22T05:19:26.376Z,10.74
2023-04-22T05:20:26.406Z,10.68
2023-04-22T05:21:26.383Z,10.68
2023-04-22T05:22:26.347Z,10.64
2023-04-22T05:23:26.359Z,10.69
2023-04-22T05:24:26.340Z,10.67
2023-04-22T05:25:26.308Z,10.72
2023-04-22T05:26:26.312Z,10.81
2023-04-22T05:27:26.289Z,10.81
2023-04-22T05:28:26.285Z,10.82
2023-04-22T05:29:26.281Z,10.82
2023-04-22T05:30:26.266Z,10.90
2023-04-22T05:31:26.319Z,10.81
2023-04-22T05:32:26.368Z,10.90
2023-04-22T05:33:26.241Z,10.87
2023-04-22T05:34:26.218Z,10.87
2023-04-22T05:35:26.209Z,10.87
2023-04-22T05:36:27.473Z,10.87
2023-04-22T05:37:26.219Z,11.02
2023-04-22T05:38:26.169Z,11.00
2023-04-22T05:39:26.156Z,10.97
2023-04-22T05:40:26.158Z,10.89
2023-04-22T05:41:26.146Z,10.99
2023-04-22T05:42:26.133Z,10.87
2023-04-22T05:43:26.132Z,10.93
2023-04-22T05:44:26.109Z,10.96
2023-04-22T05:45:26.091Z,10.99
2023-04-22T05:46:26.125Z,10.94
2023-04-22T05:47:26.150Z,10.99
2023-04-22T05:48:26.080Z,11.02
2023-04-22T05:49:26.060Z,10.99
2023-04-22T05:50:26.036Z,10.97
2023-04-22T05:51:26.035Z,10.93
2023-04-22T05:52:26.014Z,11.07
2023-04-22T05:53:26.025Z,11.08
2023-04-22T05:54:26.001Z,10.99
2023-04-22T05:55:25.996Z,10.97
2023-04-22T05:56:25.977Z,11.08
2023-04-22T05:57:25.955Z,11.07
2023-04-22T05:58:25.946Z,11.05
2023-04-22T05:59:25.946Z,11.02
2023-04-22T06:00:25.921Z,11.02
2023-04-22T06:01:25.937Z,11.02
2023-04-22T06:02:26.052Z,11.04
2023-04-22T06:03:26.068Z,11.11
2023-04-22T06:04:26.154Z,11.08
2023-04-22T06:05:25.972Z,11.08
2023-04-22T06:06:25.874Z,11.08
2023-04-22T06:07:25.847Z,11.02
2023-04-22T06:08:25.837Z,11.10
2023-04-22T06:09:25.864Z,11.12
2023-04-22T06:10:25.815Z,11.10
2023-04-22T06:11:25.834Z,11.08
2023-04-22T06:12:25.787Z,11.14
2023-04-22T06:13:25.794Z,11.22
2023-04-22T06:14:25.766Z,11.15
2023-04-22T06:15:25.760Z,11.15
2023-04-22T06:16:25.752Z,11.19
2023-04-22T06:17:25.795Z,11.18
2023-04-22T06:18:26.581Z,11.22
2023-04-22T06:19:25.720Z,11.19
2023-04-22T06:20:25.717Z,11.19
2023-04-22T06:21:25.691Z,11.18
2023-04-22T06:22:25.698Z,11.27
2023-04-22T06:23:25.677Z,11.19
2023-04-22T06:24:25.654Z,11.32
2023-04-22T06:25:25.672Z,11.33
2023-04-22T06:26:25.633Z,11.37
2023-04-22T06:27:25.640Z,11.41
2023-04-22T06:28:25.608Z,11.36
2023-04-22T06:29:25.623Z,11.41
2023-04-22T06:30:25.591Z,11.45
2023-04-22T06:31:25.629Z,11.43
2023-04-22T06:32:25.574Z,11.40
2023-04-22T06:33:25.560Z,11.40
2023-04-22T06:34:25.548Z,11.40
2023-04-22T06:35:25.541Z,11.47
2023-04-22T06:36:25.518Z,11.51
2023-04-22T06:37:25.526Z,11.51
2023-04-22T06:38:25.512Z,11.48
2023-04-22T06:39:25.495Z,11.57
2023-04-22T06:40:25.479Z,11.57
2023-04-22T06:41:25.488Z,11.59
2023-04-22T06:42:25.491Z,11.62
2023-04-22T06:43:25.444Z,11.57
2023-04-22T06:44:25.431Z,11.70
2023-04-22T06:45:25.421Z,11.70
2023-04-22T06:46:25.433Z,11.72
2023-04-22T06:47:25.436Z,11.77
2023-04-22T06:48:25.420Z,11.73
2023-04-22T06:49:25.377Z,11.78
2023-04-22T06:50:25.362Z,11.80
2023-04-22T06:51:25.357Z,11.77
2023-04-22T06:52:25.347Z,11.73
2023-04-22T06:53:25.355Z,11.77
2023-04-22T06:54:25.346Z,11.77
2023-04-22T06:55:25.323Z,11.80
2023-04-22T06:56:25.299Z,11.83
2023-04-22T06:57:25.314Z,11.84
2023-04-22T06:58:25.275Z,12.00
2023-04-22T06:59:25.281Z,11.99
2023-04-22T07:00:25.253Z,12.07
2023-04-22T07:01:25.265Z,12.18
2023-04-22T07:02:25.293Z,12.12
2023-04-22T07:03:25.321Z,12.07
2023-04-22T07:04:25.292Z,12.18
2023-04-22T07:05:25.197Z,12.21
2023-04-22T07:06:25.185Z,12.29
2023-04-22T07:07:25.187Z,12.36
2023-04-22T07:08:25.164Z,12.42
2023-04-22T07:09:25.168Z,12.42
2023-04-22T07:10:25.137Z,12.46
2023-04-22T07:11:25.129Z,12.45
2023-04-22T07:12:25.123Z,12.40
2023-04-22T07:13:25.125Z,12.42
2023-04-22T07:14:25.128Z,12.45
2023-04-22T07:15:25.092Z,12.43
2023-04-22T07:16:25.090Z,12.42
2023-04-22T07:17:25.086Z,12.43
2023-04-22T07:18:25.049Z,12.49
2023-04-22T07:19:25.042Z,12.43
2023-04-22T07:20:25.069Z,12.67
2023-04-22T07:21:25.019Z,12.60
2023-04-22T07:22:25.002Z,12.54
2023-04-22T07:23:25.003Z,12.62
2023-04-22T07:24:24.978Z,12.58
2023-04-22T07:25:24.989Z,12.61
2023-04-22T07:26:24.990Z,12.58
2023-04-22T07:27:24.963Z,12.65
2023-04-22T07:28:24.936Z,12.67
2023-04-22T07:29:24.948Z,12.79
2023-04-22T07:30:24.963Z,12.87
2023-04-22T07:31:24.909Z,12.90
2023-04-22T07:32:24.953Z,12.93
2023-04-22T07:33:24.880Z,13.01
2023-04-22T07:34:24.867Z,12.98
2023-04-22T07:35:24.882Z,12.95
2023-04-22T07:36:24.855Z,13.19
2023-04-22T07:37:24.846Z,13.23
2023-04-22T07:38:24.822Z,13.22
2023-04-22T07:39:24.831Z,13.20
2023-04-22T07:40:24.902Z,13.38
2023-04-22T07:41:24.795Z,13.53
2023-04-22T07:42:24.778Z,13.49
2023-04-22T07:43:24.770Z,13.52
2023-04-22T07:44:24.758Z,13.59
2023-04-22T07:45:24.791Z,13.70
2023-04-22T07:46:24.763Z,13.67
2023-04-22T07:47:24.796Z,13.75
2023-04-22T07:48:24.720Z,13.78
2023-04-22T07:49:24.699Z,13.97
2023-04-22T07:50:24.749Z,14.14
2023-04-22T07:51:24.682Z,14.35
2023-04-22T07:52:24.701Z,14.55
2023-04-22T07:53:24.657Z,14.82
2023-04-22T07:54:24.659Z,14.85
2023-04-22T07:55:24.637Z,14.99
2023-04-22T07:56:24.636Z,15.10
2023-04-22T07:57:24.638Z,15.28
2023-04-22T07:58:24.617Z,15.43
2023-04-22T07:59:24.605Z,15.33
2023-04-22T08:00:24.599Z,15.24
2023-04-22T08:01:24.619Z,15.35
2023-04-22T08:02:24.686Z,15.35
2023-04-22T08:03:24.838Z,15.35
2023-04-22T08:04:24.704Z,15.49
2023-04-22T08:05:24.561Z,15.55
2023-04-22T08:06:24.513Z,15.65
2023-04-22T08:07:32.544Z,15.76
2023-04-22T08:08:25.490Z,15.86
2023-04-22T08:09:24.487Z,15.92
2023-04-22T08:10:24.486Z,15.83
2023-04-22T08:11:24.460Z,15.90
2023-04-22T08:12:24.471Z,16.09
2023-04-22T08:13:24.444Z,16.10
2023-04-22T08:14:24.431Z,16.23
2023-04-22T08:15:24.424Z,16.31
2023-04-22T08:16:24.470Z,16.46
2023-04-22T08:17:24.441Z,16.49
2023-04-22T08:18:24.402Z,16.49
2023-04-22T08:19:24.375Z,16.61
2023-04-22T08:20:24.368Z,16.81
2023-04-22T08:21:24.356Z,16.81
2023-04-22T08:22:24.362Z,16.86
2023-04-22T08:23:24.330Z,16.86
2023-04-22T08:24:24.363Z,17.01
2023-04-22T08:25:24.311Z,17.08
2023-04-22T08:26:24.305Z,17.06
2023-04-22T08:27:24.299Z,17.06
2023-04-22T08:28:24.307Z,17.29
2023-04-22T08:29:24.266Z,17.36
2023-04-22T08:30:24.263Z,17.34
2023-04-22T08:31:24.292Z,17.49
2023-04-22T08:32:24.250Z,17.60
2023-04-22T08:33:26.527Z,17.59
2023-04-22T08:34:24.222Z,17.63
2023-04-22T08:35:24.216Z,17.57
2023-04-22T08:36:24.186Z,17.68
2023-04-22T08:37:24.185Z,17.74
2023-04-22T08:38:24.166Z,17.87
2023-04-22T08:39:24.157Z,18.03
2023-04-22T08:40:24.156Z,18.20
2023-04-22T08:41:24.146Z,18.19
2023-04-22T08:42:24.118Z,18.29
2023-04-22T08:43:24.106Z,18.23
2023-04-22T08:44:24.102Z,18.26
2023-04-22T08:45:24.081Z,18.34
2023-04-22T08:46:24.198Z,18.29
2023-04-22T08:47:24.113Z,18.33
2023-04-22T08:48:24.061Z,18.29
2023-04-22T08:49:24.072Z,18.44
2023-04-22T08:50:24.050Z,18.37
2023-04-22T08:51:24.016Z,18.44
2023-04-22T08:52:24.019Z,18.55
2023-04-22T08:53:24.920Z,18.62
2023-04-22T08:54:23.987Z,18.62
2023-04-22T08:55:23.982Z,18.70
2023-04-22T08:56:23.955Z,18.55
2023-04-22T08:57:23.950Z,18.52
2023-04-22T08:58:23.949Z,18.40
2023-04-22T08:59:23.943Z,18.43
2023-04-22T09:00:23.916Z,18.35
2023-04-22T09:01:24.008Z,18.19
2023-04-22T09:02:23.988Z,18.23
2023-04-22T09:03:23.976Z,18.08
2023-04-22T09:04:23.961Z,18.04
2023-04-22T09:05:25.584Z,18.05
2023-04-22T09:06:23.859Z,18.10
2023-04-22T09:07:23.845Z,18.26
2023-04-22T09:08:23.851Z,18.44
2023-04-22T09:09:23.830Z,18.63
2023-04-22T09:10:23.801Z,18.78
2023-04-22T09:11:23.793Z,18.78
2023-04-22T09:12:23.790Z,18.84
2023-04-22T09:13:23.767Z,19.02
2023-04-22T09:14:23.773Z,19.09
2023-04-22T09:15:23.761Z,19.04
2023-04-22T09:16:23.771Z,19.15
2023-04-22T09:17:23.778Z,19.02
2023-04-22T09:18:23.716Z,18.88
2023-04-22T09:19:23.725Z,18.83
2023-04-22T09:20:23.695Z,18.71
2023-04-22T09:21:23.811Z,18.65
2023-04-22T09:22:23.689Z,18.77
2023-04-22T09:23:23.655Z,18.70
2023-04-22T09:24:23.648Z,18.77
2023-04-22T09:25:23.647Z,18.58
2023-04-22T09:26:23.640Z,18.52
2023-04-22T09:27:23.634Z,18.56
2023-04-22T09:28:23.634Z,18.56
2023-04-22T09:29:23.586Z,18.55
2023-04-22T09:30:23.579Z,18.47
2023-04-22T09:31:23.600Z,18.44
2023-04-22T09:32:23.573Z,18.44
2023-04-22T09:33:23.561Z,18.29
2023-04-22T09:34:23.549Z,18.26
2023-04-22T09:35:23.534Z,18.22
2023-04-22T09:36:23.551Z,18.33
2023-04-22T09:37:23.525Z,18.41
2023-04-22T09:38:23.482Z,18.40
2023-04-22T09:39:23.502Z,18.47
2023-04-22T09:40:23.476Z,18.49
2023-04-22T09:41:23.460Z,18.45
2023-04-22T09:42:23.460Z,18.44
2023-04-22T09:43:23.434Z,18.49
2023-04-22T09:44:23.420Z,18.52
2023-04-22T09:45:23.430Z,18.44
2023-04-22T09:46:23.564Z,18.56
2023-04-22T09:47:23.444Z,18.58
2023-04-22T09:48:23.388Z,18.56
2023-04-22T09:49:23.389Z,18.62
2023-04-22T09:50:23.355Z,18.49
2023-04-22T09:51:23.374Z,18.45
2023-04-22T09:52:23.355Z,18.41
2023-04-22T09:53:23.347Z,18.41
2023-04-22T09:54:23.309Z,18.44
2023-04-22T09:55:23.302Z,18.41
2023-04-22T09:56:23.298Z,18.38
2023-04-22T09:57:23.280Z,18.47
2023-04-22T09:58:23.277Z,18.55
2023-04-22T09:59:23.304Z,18.53
2023-04-22T10:00:23.240Z,18.53
2023-04-22T10:01:23.260Z,18.66
2023-04-22T10:02:23.261Z,18.74
2023-04-22T10:03:23.245Z,18.93
2023-04-22T10:04:23.370Z,19.11
2023-04-22T10:05:23.191Z,19.31
2023-04-22T10:06:23.184Z,19.30
2023-04-22T10:07:23.167Z,19.47
2023-04-22T10:08:23.229Z,19.64
2023-04-22T10:09:23.164Z,19.74
2023-04-22T10:10:23.133Z,19.91
2023-04-22T10:11:23.120Z,19.91
2023-04-22T10:12:32.925Z,19.95
2023-04-22T10:13:24.113Z,20.00
2023-04-22T10:14:23.236Z,20.09
2023-04-22T10:15:24.889Z,20.06
2023-04-22T10:16:23.076Z,19.82
2023-04-22T10:17:23.086Z,19.81
2023-04-22T10:18:23.044Z,19.92
2023-04-22T10:19:23.061Z,19.76
2023-04-22T10:20:23.024Z,19.70
2023-04-22T10:21:24.697Z,19.84
2023-04-22T10:22:23.012Z,19.82
2023-04-22T10:23:22.992Z,20.04
2023-04-22T10:24:22.973Z,20.10
2023-04-22T10:25:22.998Z,20.04
2023-04-22T10:26:22.952Z,20.10
2023-04-22T10:27:23.180Z,20.18
2023-04-22T10:28:23.312Z,20.29
2023-04-22T10:29:22.919Z,20.26
2023-04-22T10:30:22.917Z,20.31
2023-04-22T10:31:23.011Z,20.39
2023-04-22T10:32:22.962Z,20.52
2023-04-22T10:33:22.873Z,20.52
2023-04-22T10:34:22.864Z,20.66
2023-04-22T10:35:22.861Z,20.65
2023-04-22T10:36:22.846Z,20.66
2023-04-22T10:37:22.843Z,20.87
2023-04-22T10:38:22.819Z,20.81
2023-04-22T10:39:22.804Z,20.82
2023-04-22T10:40:22.831Z,21.05
2023-04-22T10:41:22.819Z,21.18
2023-04-22T10:42:22.783Z,21.21
2023-04-22T10:43:22.780Z,21.42
2023-04-22T10:44:22.750Z,21.55
2023-04-22T10:45:22.739Z,21.43
2023-04-22T10:46:22.767Z,21.45
2023-04-22T10:47:22.754Z,21.46
2023-04-22T10:48:22.709Z,21.42
2023-04-22T10:49:22.725Z,21.51
2023-04-22T10:50:22.712Z,21.48
2023-04-22T10:51:22.673Z,21.33
2023-04-22T10:52:22.687Z,21.37
2023-04-22T10:53:22.652Z,21.40
2023-04-22T10:54:22.787Z,21.50
2023-04-22T10:55:22.650Z,21.62
2023-04-22T10:56:22.628Z,21.66
2023-04-22T10:57:22.839Z,21.62
2023-04-22T10:58:22.627Z,21.58
2023-04-22T10:59:22.587Z,21.62
2023-04-22T11:00:22.590Z,21.60
2023-04-22T11:01:22.589Z,21.45
2023-04-22T11:02:22.596Z,21.30
2023-04-22T11:03:22.774Z,21.24
2023-04-22T11:04:22.751Z,21.50
2023-04-22T11:05:24.594Z,21.40
2023-04-22T11:06:22.556Z,21.25
2023-04-22T11:07:22.538Z,21.40
2023-04-22T11:08:22.506Z,21.43
2023-04-22T11:09:22.488Z,21.64
2023-04-22T11:10:22.473Z,21.77
2023-04-22T11:11:22.464Z,21.92
2023-04-22T11:12:22.449Z,22.11
2023-04-22T11:13:22.483Z,21.99
2023-04-22T11:14:22.429Z,21.93
2023-04-22T11:15:22.438Z,21.76
2023-04-22T11:16:22.694Z,21.82
2023-04-22T11:17:22.450Z,21.76
2023-04-22T11:18:22.449Z,21.82
2023-04-22T11:19:22.372Z,21.82
2023-04-22T11:20:22.360Z,21.98
2023-04-22T11:21:22.397Z,22.22
2023-04-22T11:22:22.334Z,22.30
2023-04-22T11:23:22.340Z,22.36
2023-04-22T11:24:22.320Z,22.45
2023-04-22T11:25:22.313Z,22.29
2023-04-22T11:26:22.292Z,22.29
2023-04-22T11:27:22.293Z,22.25
2023-04-22T11:28:22.295Z,22.17
2023-04-22T11:29:22.280Z,22.28
2023-04-22T11:30:22.246Z,22.44
2023-04-22T11:31:22.260Z,22.41
2023-04-22T11:32:22.249Z,22.43
2023-04-22T11:33:22.218Z,22.60
2023-04-22T11:34:22.221Z,22.68
2023-04-22T11:35:22.194Z,22.70
2023-04-22T11:36:22.178Z,22.63
2023-04-22T11:37:22.164Z,22.75
2023-04-22T11:38:22.158Z,22.80
2023-04-22T11:39:22.143Z,23.03
2023-04-22T11:40:30.804Z,22.88
2023-04-22T11:41:23.131Z,22.81
2023-04-22T11:42:22.128Z,22.85
2023-04-22T11:43:22.108Z,23.03
2023-04-22T11:44:22.093Z,23.00
2023-04-22T11:45:22.101Z,23.02
2023-04-22T11:46:22.500Z,22.80
2023-04-22T11:47:22.142Z,22.47
2023-04-22T11:48:22.050Z,22.20
2023-04-22T11:49:22.035Z,21.83
2023-04-22T11:50:22.023Z,21.76
2023-04-22T11:51:22.014Z,21.66
2023-04-22T11:52:22.014Z,21.43
2023-04-22T11:53:22.004Z,21.42
2023-04-22T11:54:21.989Z,21.22
2023-04-22T11:55:21.969Z,21.18
2023-04-22T11:56:21.981Z,21.18
2023-04-22T11:57:22.005Z,21.46
2023-04-22T11:58:21.932Z,21.75
2023-04-22T11:59:21.941Z,21.92
2023-04-22T12:00:21.910Z,22.11
2023-04-22T12:01:22.025Z,21.85
2023-04-22T12:02:21.961Z,21.79
2023-04-22T12:03:21.993Z,21.77
2023-04-22T12:04:21.935Z,21.80
2023-04-22T12:05:21.876Z,21.83
2023-04-22T12:06:21.856Z,21.88
2023-04-22T12:07:21.851Z,21.93
2023-04-22T12:08:21.824Z,22.11
2023-04-22T12:09:21.813Z,22.32
2023-04-22T12:10:21.823Z,22.55
2023-04-22T12:11:21.786Z,22.72
2023-04-22T12:12:21.784Z,22.73
2023-04-22T12:13:21.774Z,22.87
2023-04-22T12:14:21.768Z,23.03
2023-04-22T12:15:21.759Z,22.96
2023-04-22T12:16:21.793Z,22.99
2023-04-22T12:17:21.796Z,23.00
2023-04-22T12:18:21.708Z,23.00
2023-04-22T12:19:21.698Z,23.15
2023-04-22T12:20:23.467Z,23.02
2023-04-22T12:21:21.697Z,23.05
2023-04-22T12:22:21.675Z,22.80
2023-04-22T12:23:21.667Z,22.55
2023-04-22T12:24:21.661Z,22.33
2023-04-22T12:25:21.632Z,22.13
2023-04-22T12:26:23.173Z,21.92
2023-04-22T12:27:21.624Z,21.88
2023-04-22T12:28:21.628Z,21.69
2023-04-22T12:29:21.608Z,21.73
2023-04-22T12:30:21.585Z,21.70
2023-04-22T12:31:21.731Z,21.69
2023-04-22T12:32:23.664Z,21.64
2023-04-22T12:33:21.570Z,21.57
2023-04-22T12:34:21.547Z,21.62
2023-04-22T12:35:21.523Z,21.54
2023-04-22T12:36:21.528Z,21.50
2023-04-22T12:37:21.499Z,21.58
2023-04-22T12:38:21.496Z,21.51
2023-04-22T12:39:21.491Z,21.52
2023-04-22T12:40:21.469Z,21.69
2023-04-22T12:41:21.460Z,21.89
2023-04-22T12:42:21.456Z,22.10
2023-04-22T12:43:21.450Z,22.23
2023-04-22T12:44:23.801Z,22.50
2023-04-22T12:45:21.422Z,22.63
2023-04-22T12:46:21.447Z,22.75
2023-04-22T12:47:21.437Z,22.85
2023-04-22T12:48:21.403Z,22.75
2023-04-22T12:49:21.417Z,22.75
2023-04-22T12:50:21.373Z,22.70
2023-04-22T12:51:21.359Z,22.65
2023-04-22T12:52:21.347Z,22.63
2023-04-22T12:53:21.328Z,22.69
2023-04-22T12:54:21.324Z,22.66
2023-04-22T12:55:21.330Z,22.66
2023-04-22T12:56:21.292Z,22.53
2023-04-22T12:57:21.277Z,22.47
2023-04-22T12:58:21.297Z,22.41
2023-04-22T12:59:21.266Z,22.35
2023-04-22T13:00:21.246Z,22.17